sensor_id;sensor_type;location;lat;lon;timestamp;temperature;humidity
51855;DHT22;37895;53.240;6.572;2023-11-21T00:00:55;10.00;99.90
51855;DHT22;37895;53.240;6.572;2023-11-21T00:03:20;10.20;99.90
51855;DHT22;37895;53.240;6.572;2023-11-21T00:05:49;10.00;99.90
51855;DHT22;37895;53.240;6.572;2023-11-21T00:08:14;10.10;99.90
51855;DHT22;37895;53.240;6.572;2023-11-21T00:10:40;9.90;99.90
51855;DHT22;37895;53.240;6.572;2023-11-21T00:13:05;10.00;99.90
51855;DHT22;37895;53.240;6.572;2023-11-21T00:15:31;10.20;99.90
51855;DHT22;37895;53.240;6.572;2023-11-21T00:17:57;10.00;99.90
51855;DHT22;37895;53.240;6.572;2023-11-21T00:20:22;10.00;99.90
51855;DHT22;37895;53.240;6.572;2023-11-21T00:22:48;10.00;99.90
51855;DHT22;37895;53.240;6.572;2023-11-21T00:25:13;10.00;99.90
51855;DHT22;37895;53.240;6.572;2023-11-21T00:27:41;9.90;99.90
51855;DHT22;37895;53.240;6.572;2023-11-21T00:30:07;10.10;99.90
51855;DHT22;37895;53.240;6.572;2023-11-21T00:32:35;10.00;99.90
51855;DHT22;37895;53.240;6.572;2023-11-21T00:35:01;10.10;99.90
51855;DHT22;37895;53.240;6.572;2023-11-21T00:37:27;10.00;99.90
51855;DHT22;37895;53.240;6.572;2023-11-21T00:39:52;10.30;99.90
51855;DHT22;37895;53.240;6.572;2023-11-21T00:42:18;10.20;99.90
51855;DHT22;37895;53.240;6.572;2023-11-21T00:44:44;10.00;99.90
51855;DHT22;37895;53.240;6.572;2023-11-21T00:47:09;10.00;99.90
51855;DHT22;37895;53.240;6.572;2023-11-21T00:49:35;10.10;99.90
51855;DHT22;37895;53.240;6.572;2023-11-21T00:52:00;9.90;99.90
51855;DHT22;37895;53.240;6.572;2023-11-21T00:54:28;10.10;99.90
51855;DHT22;37895;53.240;6.572;2023-11-21T00:56:53;10.20;99.90
51855;DHT22;37895;53.240;6.572;2023-11-21T00:59:19;10.20;99.90
51855;DHT22;37895;53.240;6.572;2023-11-21T01:01:44;9.90;99.90
51855;DHT22;37895;53.240;6.572;2023-11-21T01:04:10;10.20;99.90
51855;DHT22;37895;53.240;6.572;2023-11-21T01:06:36;9.80;99.90
51855;DHT22;37895;53.240;6.572;2023-11-21T01:09:02;10.00;99.90
51855;DHT22;37895;53.240;6.572;2023-11-21T01:11:33;10.00;99.90
51855;DHT22;37895;53.240;6.572;2023-11-21T01:14:01;10.20;99.90
51855;DHT22;37895;53.240;6.572;2023-11-21T01:16:28;9.80;99.90
51855;DHT22;37895;53.240;6.572;2023-11-21T01:18:54;10.70;99.90
51855;DHT22;37895;53.240;6.572;2023-11-21T01:21:20;10.00;99.90
51855;DHT22;37895;53.240;6.572;2023-11-21T01:23:45;10.10;99.90
51855;DHT22;37895;53.240;6.572;2023-11-21T01:26:13;10.00;99.90
51855;DHT22;37895;53.240;6.572;2023-11-21T01:28:38;10.10;99.90
51855;DHT22;37895;53.240;6.572;2023-11-21T01:31:04;10.10;99.90
51855;DHT22;37895;53.240;6.572;2023-11-21T01:33:29;10.00;99.90
51855;DHT22;37895;53.240;6.572;2023-11-21T01:35:55;9.90;99.90
51855;DHT22;37895;53.240;6.572;2023-11-21T01:38:21;9.90;99.90
51855;DHT22;37895;53.240;6.572;2023-11-21T01:40:47;10.20;99.90
51855;DHT22;37895;53.240;6.572;2023-11-21T01:43:13;10.40;99.90
51855;DHT22;37895;53.240;6.572;2023-11-21T01:45:38;9.90;99.90
51855;DHT22;37895;53.240;6.572;2023-11-21T01:48:04;10.20;99.90
51855;DHT22;37895;53.240;6.572;2023-11-21T01:50:32;9.90;99.90
51855;DHT22;37895;53.240;6.572;2023-11-21T01:52:59;10.00;99.90
51855;DHT22;37895;53.240;6.572;2023-11-21T01:55:27;9.80;99.90
51855;DHT22;37895;53.240;6.572;2023-11-21T01:57:53;9.90;99.90
51855;DHT22;37895;53.240;6.572;2023-11-21T02:00:19;10.00;99.90
51855;DHT22;37895;53.240;6.572;2023-11-21T02:02:46;9.90;99.90
51855;DHT22;37895;53.240;6.572;2023-11-21T02:05:14;10.20;99.90
51855;DHT22;37895;53.240;6.572;2023-11-21T02:07:41;9.90;99.90
51855;DHT22;37895;53.240;6.572;2023-11-21T02:10:08;10.00;99.90
51855;DHT22;37895;53.240;6.572;2023-11-21T02:12:34;10.10;99.90
51855;DHT22;37895;53.240;6.572;2023-11-21T02:15:04;10.20;99.90
51855;DHT22;37895;53.240;6.572;2023-11-21T02:17:35;10.00;99.90
51855;DHT22;37895;53.240;6.572;2023-11-21T02:20:01;10.20;99.90
51855;DHT22;37895;53.240;6.572;2023-11-21T02:22:30;10.00;99.90
51855;DHT22;37895;53.240;6.572;2023-11-21T02:24:56;10.10;99.90
51855;DHT22;37895;53.240;6.572;2023-11-21T02:27:23;10.00;99.90
51855;DHT22;37895;53.240;6.572;2023-11-21T02:29:49;10.00;99.90
51855;DHT22;37895;53.240;6.572;2023-11-21T02:32:15;10.30;99.90
51855;DHT22;37895;53.240;6.572;2023-11-21T02:34:42;10.20;99.90
51855;DHT22;37895;53.240;6.572;2023-11-21T02:37:09;9.90;99.90
51855;DHT22;37895;53.240;6.572;2023-11-21T02:39:35;10.00;99.90
51855;DHT22;37895;53.240;6.572;2023-11-21T02:42:01;10.00;99.90
51855;DHT22;37895;53.240;6.572;2023-11-21T02:44:26;10.10;99.90
51855;DHT22;37895;53.240;6.572;2023-11-21T02:46:52;10.00;99.90
51855;DHT22;37895;53.240;6.572;2023-11-21T02:49:18;10.00;99.90
51855;DHT22;37895;53.240;6.572;2023-11-21T02:51:43;9.90;99.90
51855;DHT22;37895;53.240;6.572;2023-11-21T02:54:09;10.20;99.90
51855;DHT22;37895;53.240;6.572;2023-11-21T02:56:34;10.10;99.90
51855;DHT22;37895;53.240;6.572;2023-11-21T02:59:00;10.10;99.90
51855;DHT22;37895;53.240;6.572;2023-11-21T03:01:27;10.10;99.90
51855;DHT22;37895;53.240;6.572;2023-11-21T03:03:53;9.90;99.90
51855;DHT22;37895;53.240;6.572;2023-11-21T03:06:20;9.90;99.90
51855;DHT22;37895;53.240;6.572;2023-11-21T03:08:47;9.90;99.90
51855;DHT22;37895;53.240;6.572;2023-11-21T03:11:13;10.10;99.90
51855;DHT22;37895;53.240;6.572;2023-11-21T03:13:39;9.80;99.90
51855;DHT22;37895;53.240;6.572;2023-11-21T03:16:10;9.90;99.90
51855;DHT22;37895;53.240;6.572;2023-11-21T03:18:36;9.80;99.90
51855;DHT22;37895;53.240;6.572;2023-11-21T03:21:03;9.90;99.90
51855;DHT22;37895;53.240;6.572;2023-11-21T03:23:29;9.80;99.90
51855;DHT22;37895;53.240;6.572;2023-11-21T03:25:54;9.80;99.90
51855;DHT22;37895;53.240;6.572;2023-11-21T03:28:20;9.90;99.90
51855;DHT22;37895;53.240;6.572;2023-11-21T03:30:45;9.80;99.90
51855;DHT22;37895;53.240;6.572;2023-11-21T03:33:11;10.00;99.90
51855;DHT22;37895;53.240;6.572;2023-11-21T03:35:37;9.90;99.90
51855;DHT22;37895;53.240;6.572;2023-11-21T03:38:03;10.00;99.90
51855;DHT22;37895;53.240;6.572;2023-11-21T03:40:29;9.80;99.90
51855;DHT22;37895;53.240;6.572;2023-11-21T03:42:56;9.30;99.90
51855;DHT22;37895;53.240;6.572;2023-11-21T03:45:22;9.90;99.90
51855;DHT22;37895;53.240;6.572;2023-11-21T03:47:48;9.80;99.90
51855;DHT22;37895;53.240;6.572;2023-11-21T03:50:14;9.80;99.90
51855;DHT22;37895;53.240;6.572;2023-11-21T03:52:39;9.90;99.90
51855;DHT22;37895;53.240;6.572;2023-11-21T03:55:05;9.80;99.90
51855;DHT22;37895;53.240;6.572;2023-11-21T03:57:31;9.20;99.90
51855;DHT22;37895;53.240;6.572;2023-11-21T03:59:56;10.00;99.90
51855;DHT22;37895;53.240;6.572;2023-11-21T04:02:22;9.70;99.90
51855;DHT22;37895;53.240;6.572;2023-11-21T04:04:48;9.70;99.90
51855;DHT22;37895;53.240;6.572;2023-11-21T04:07:13;9.90;99.90
51855;DHT22;37895;53.240;6.572;2023-11-21T04:09:39;9.60;99.90
51855;DHT22;37895;53.240;6.572;2023-11-21T04:12:07;9.70;99.90
51855;DHT22;37895;53.240;6.572;2023-11-21T04:14:34;9.80;99.90
51855;DHT22;37895;53.240;6.572;2023-11-21T04:16:59;9.70;99.90
51855;DHT22;37895;53.240;6.572;2023-11-21T04:19:25;9.90;99.90
51855;DHT22;37895;53.240;6.572;2023-11-21T04:21:51;9.50;99.90
51855;DHT22;37895;53.240;6.572;2023-11-21T04:24:17;9.50;99.90
51855;DHT22;37895;53.240;6.572;2023-11-21T04:26:44;9.70;99.90
51855;DHT22;37895;53.240;6.572;2023-11-21T04:29:09;9.90;99.90
51855;DHT22;37895;53.240;6.572;2023-11-21T04:31:35;9.80;99.90
51855;DHT22;37895;53.240;6.572;2023-11-21T04:34:01;9.60;99.90
51855;DHT22;37895;53.240;6.572;2023-11-21T04:36:27;9.60;99.90
51855;DHT22;37895;53.240;6.572;2023-11-21T04:38:53;9.40;99.90
51855;DHT22;37895;53.240;6.572;2023-11-21T04:41:18;9.50;99.90
51855;DHT22;37895;53.240;6.572;2023-11-21T04:43:44;9.60;99.90
51855;DHT22;37895;53.240;6.572;2023-11-21T04:46:09;9.40;99.90
51855;DHT22;37895;53.240;6.572;2023-11-21T04:48:35;9.30;99.90
51855;DHT22;37895;53.240;6.572;2023-11-21T04:51:00;9.30;99.90
51855;DHT22;37895;53.240;6.572;2023-11-21T04:53:26;9.60;99.90
51855;DHT22;37895;53.240;6.572;2023-11-21T04:55:52;9.60;99.90
51855;DHT22;37895;53.240;6.572;2023-11-21T04:58:18;9.60;99.90
51855;DHT22;37895;53.240;6.572;2023-11-21T05:00:44;9.40;99.90
51855;DHT22;37895;53.240;6.572;2023-11-21T05:03:10;9.60;99.90
51855;DHT22;37895;53.240;6.572;2023-11-21T05:05:35;9.50;99.90
51855;DHT22;37895;53.240;6.572;2023-11-21T05:08:01;9.40;99.90
51855;DHT22;37895;53.240;6.572;2023-11-21T05:10:27;9.30;99.90
51855;DHT22;37895;53.240;6.572;2023-11-21T05:12:54;9.60;99.90
51855;DHT22;37895;53.240;6.572;2023-11-21T05:15:21;9.40;99.90
51855;DHT22;37895;53.240;6.572;2023-11-21T05:17:46;9.30;99.90
51855;DHT22;37895;53.240;6.572;2023-11-21T05:20:15;9.50;99.90
51855;DHT22;37895;53.240;6.572;2023-11-21T05:22:47;9.30;99.90
51855;DHT22;37895;53.240;6.572;2023-11-21T05:25:14;9.70;99.90
51855;DHT22;37895;53.240;6.572;2023-11-21T05:27:39;9.60;99.90
51855;DHT22;37895;53.240;6.572;2023-11-21T05:30:05;9.60;99.90
51855;DHT22;37895;53.240;6.572;2023-11-21T05:32:31;9.30;99.90
51855;DHT22;37895;53.240;6.572;2023-11-21T05:34:57;9.40;99.90
51855;DHT22;37895;53.240;6.572;2023-11-21T05:37:23;9.70;99.90
51855;DHT22;37895;53.240;6.572;2023-11-21T05:39:49;9.40;99.90
51855;DHT22;37895;53.240;6.572;2023-11-21T05:42:15;9.40;99.90
51855;DHT22;37895;53.240;6.572;2023-11-21T05:44:41;9.70;99.90
51855;DHT22;37895;53.240;6.572;2023-11-21T05:47:08;10.00;99.90
51855;DHT22;37895;53.240;6.572;2023-11-21T05:49:34;9.50;99.90
51855;DHT22;37895;53.240;6.572;2023-11-21T05:52:00;9.50;99.90
51855;DHT22;37895;53.240;6.572;2023-11-21T05:54:26;9.50;99.90
51855;DHT22;37895;53.240;6.572;2023-11-21T05:56:51;9.70;99.90
51855;DHT22;37895;53.240;6.572;2023-11-21T05:59:17;9.50;99.90
51855;DHT22;37895;53.240;6.572;2023-11-21T06:01:43;9.50;99.90
51855;DHT22;37895;53.240;6.572;2023-11-21T06:04:08;9.50;99.90
51855;DHT22;37895;53.240;6.572;2023-11-21T06:06:35;9.50;99.90
51855;DHT22;37895;53.240;6.572;2023-11-21T06:09:01;9.30;99.90
51855;DHT22;37895;53.240;6.572;2023-11-21T06:11:26;9.30;99.90
51855;DHT22;37895;53.240;6.572;2023-11-21T06:13:52;9.40;99.90
51855;DHT22;37895;53.240;6.572;2023-11-21T06:16:19;9.70;99.90
51855;DHT22;37895;53.240;6.572;2023-11-21T06:18:47;9.20;99.90
51855;DHT22;37895;53.240;6.572;2023-11-21T06:21:13;9.40;99.90
51855;DHT22;37895;53.240;6.572;2023-11-21T06:23:39;9.50;99.90
51855;DHT22;37895;53.240;6.572;2023-11-21T06:26:05;9.80;99.90
51855;DHT22;37895;53.240;6.572;2023-11-21T06:28:32;9.20;99.90
51855;DHT22;37895;53.240;6.572;2023-11-21T06:30:57;9.10;99.90
51855;DHT22;37895;53.240;6.572;2023-11-21T06:33:24;9.20;99.90
51855;DHT22;37895;53.240;6.572;2023-11-21T06:35:52;9.20;99.90
51855;DHT22;37895;53.240;6.572;2023-11-21T06:38:18;9.20;99.90
51855;DHT22;37895;53.240;6.572;2023-11-21T06:40:45;9.60;99.90
51855;DHT22;37895;53.240;6.572;2023-11-21T06:43:11;9.20;99.90
51855;DHT22;37895;53.240;6.572;2023-11-21T06:45:36;9.20;99.90
51855;DHT22;37895;53.240;6.572;2023-11-21T06:48:02;9.10;99.90
51855;DHT22;37895;53.240;6.572;2023-11-21T06:50:28;9.00;99.90
51855;DHT22;37895;53.240;6.572;2023-11-21T06:52:53;9.20;99.90
51855;DHT22;37895;53.240;6.572;2023-11-21T06:55:19;9.00;99.90
51855;DHT22;37895;53.240;6.572;2023-11-21T06:57:45;8.80;99.90
51855;DHT22;37895;53.240;6.572;2023-11-21T07:00:11;8.80;99.90
51855;DHT22;37895;53.240;6.572;2023-11-21T07:02:37;8.80;99.90
51855;DHT22;37895;53.240;6.572;2023-11-21T07:05:03;8.70;99.90
51855;DHT22;37895;53.240;6.572;2023-11-21T07:07:28;8.70;99.90
51855;DHT22;37895;53.240;6.572;2023-11-21T07:09:54;9.30;99.90
51855;DHT22;37895;53.240;6.572;2023-11-21T07:12:20;8.70;99.90
51855;DHT22;37895;53.240;6.572;2023-11-21T07:14:49;9.00;99.90
51855;DHT22;37895;53.240;6.572;2023-11-21T07:17:14;9.00;99.90
51855;DHT22;37895;53.240;6.572;2023-11-21T07:19:41;8.70;99.90
51855;DHT22;37895;53.240;6.572;2023-11-21T07:22:07;9.00;99.90
51855;DHT22;37895;53.240;6.572;2023-11-21T07:24:34;8.80;99.90
51855;DHT22;37895;53.240;6.572;2023-11-21T07:26:59;8.80;99.90
51855;DHT22;37895;53.240;6.572;2023-11-21T07:29:26;8.70;99.90
51855;DHT22;37895;53.240;6.572;2023-11-21T07:31:52;8.80;99.90
51855;DHT22;37895;53.240;6.572;2023-11-21T07:34:20;9.10;99.90
51855;DHT22;37895;53.240;6.572;2023-11-21T07:36:46;8.80;99.90
51855;DHT22;37895;53.240;6.572;2023-11-21T07:39:12;8.80;99.90
51855;DHT22;37895;53.240;6.572;2023-11-21T07:41:38;8.80;99.90
51855;DHT22;37895;53.240;6.572;2023-11-21T07:44:10;8.80;99.90
51855;DHT22;37895;53.240;6.572;2023-11-21T07:46:36;8.90;99.90
51855;DHT22;37895;53.240;6.572;2023-11-21T07:49:01;9.60;99.90
51855;DHT22;37895;53.240;6.572;2023-11-21T07:51:27;8.80;99.90
51855;DHT22;37895;53.240;6.572;2023-11-21T07:53:53;9.30;99.90
51855;DHT22;37895;53.240;6.572;2023-11-21T07:56:18;8.70;99.90
51855;DHT22;37895;53.240;6.572;2023-11-21T07:58:44;8.80;99.90
51855;DHT22;37895;53.240;6.572;2023-11-21T08:01:10;9.30;99.90
51855;DHT22;37895;53.240;6.572;2023-11-21T08:03:37;9.10;99.90
51855;DHT22;37895;53.240;6.572;2023-11-21T08:06:02;8.90;99.90
51855;DHT22;37895;53.240;6.572;2023-11-21T08:08:31;8.80;99.90
51855;DHT22;37895;53.240;6.572;2023-11-21T08:10:57;9.10;99.90
51855;DHT22;37895;53.240;6.572;2023-11-21T08:13:27;8.70;99.90
51855;DHT22;37895;53.240;6.572;2023-11-21T08:15:59;8.80;99.90
51855;DHT22;37895;53.240;6.572;2023-11-21T08:18:29;8.70;99.90
51855;DHT22;37895;53.240;6.572;2023-11-21T08:20:55;9.00;99.90
51855;DHT22;37895;53.240;6.572;2023-11-21T08:23:21;9.00;99.90
51855;DHT22;37895;53.240;6.572;2023-11-21T08:25:51;8.80;99.90
51855;DHT22;37895;53.240;6.572;2023-11-21T08:28:17;8.90;99.90
51855;DHT22;37895;53.240;6.572;2023-11-21T08:30:42;9.00;99.90
51855;DHT22;37895;53.240;6.572;2023-11-21T08:33:08;9.60;99.90
51855;DHT22;37895;53.240;6.572;2023-11-21T08:35:34;9.00;99.90
51855;DHT22;37895;53.240;6.572;2023-11-21T08:38:00;9.40;99.90
51855;DHT22;37895;53.240;6.572;2023-11-21T08:40:25;8.70;99.90
51855;DHT22;37895;53.240;6.572;2023-11-21T08:42:51;8.90;99.90
51855;DHT22;37895;53.240;6.572;2023-11-21T08:45:21;8.70;99.90
51855;DHT22;37895;53.240;6.572;2023-11-21T08:47:47;9.10;99.90
51855;DHT22;37895;53.240;6.572;2023-11-21T08:50:13;8.80;99.90
51855;DHT22;37895;53.240;6.572;2023-11-21T08:52:40;8.80;99.90
51855;DHT22;37895;53.240;6.572;2023-11-21T08:55:07;8.90;99.90
51855;DHT22;37895;53.240;6.572;2023-11-21T08:57:38;8.80;99.90
51855;DHT22;37895;53.240;6.572;2023-11-21T09:00:05;8.70;99.90
51855;DHT22;37895;53.240;6.572;2023-11-21T09:02:41;8.60;99.90
51855;DHT22;37895;53.240;6.572;2023-11-21T09:05:08;9.20;99.90
51855;DHT22;37895;53.240;6.572;2023-11-21T09:07:34;8.80;99.90
51855;DHT22;37895;53.240;6.572;2023-11-21T09:10:00;8.90;99.90
51855;DHT22;37895;53.240;6.572;2023-11-21T09:12:26;8.70;99.90
51855;DHT22;37895;53.240;6.572;2023-11-21T09:14:52;8.90;99.90
51855;DHT22;37895;53.240;6.572;2023-11-21T09:17:17;8.70;99.90
51855;DHT22;37895;53.240;6.572;2023-11-21T09:19:44;9.00;99.90
51855;DHT22;37895;53.240;6.572;2023-11-21T09:22:12;8.90;99.90
51855;DHT22;37895;53.240;6.572;2023-11-21T09:24:38;8.90;99.90
51855;DHT22;37895;53.240;6.572;2023-11-21T09:27:04;8.80;99.90
51855;DHT22;37895;53.240;6.572;2023-11-21T09:29:30;8.70;99.90
51855;DHT22;37895;53.240;6.572;2023-11-21T09:31:57;8.80;99.90
51855;DHT22;37895;53.240;6.572;2023-11-21T09:34:25;8.80;99.90
51855;DHT22;37895;53.240;6.572;2023-11-21T09:36:51;8.90;99.90
51855;DHT22;37895;53.240;6.572;2023-11-21T09:39:17;8.70;99.90
51855;DHT22;37895;53.240;6.572;2023-11-21T09:41:51;9.00;99.90
51855;DHT22;37895;53.240;6.572;2023-11-21T09:44:35;8.70;99.90
51855;DHT22;37895;53.240;6.572;2023-11-21T09:47:02;8.70;99.90
51855;DHT22;37895;53.240;6.572;2023-11-21T09:49:28;8.70;99.90
51855;DHT22;37895;53.240;6.572;2023-11-21T09:51:58;8.70;99.90
51855;DHT22;37895;53.240;6.572;2023-11-21T09:54:28;8.70;99.90
51855;DHT22;37895;53.240;6.572;2023-11-21T09:56:54;8.90;99.90
51855;DHT22;37895;53.240;6.572;2023-11-21T09:59:21;8.90;99.90
51855;DHT22;37895;53.240;6.572;2023-11-21T10:01:47;9.00;99.90
51855;DHT22;37895;53.240;6.572;2023-11-21T10:04:13;8.80;99.90
51855;DHT22;37895;53.240;6.572;2023-11-21T10:06:40;8.90;99.90
51855;DHT22;37895;53.240;6.572;2023-11-21T10:09:12;9.00;99.90
51855;DHT22;37895;53.240;6.572;2023-11-21T10:11:43;8.90;99.90
51855;DHT22;37895;53.240;6.572;2023-11-21T10:14:12;8.90;99.90
51855;DHT22;37895;53.240;6.572;2023-11-21T10:16:40;9.10;99.90
51855;DHT22;37895;53.240;6.572;2023-11-21T10:19:08;8.90;99.90
51855;DHT22;37895;53.240;6.572;2023-11-21T10:21:35;9.20;99.90
51855;DHT22;37895;53.240;6.572;2023-11-21T10:24:00;8.60;99.90
51855;DHT22;37895;53.240;6.572;2023-11-21T10:26:27;9.20;99.90
51855;DHT22;37895;53.240;6.572;2023-11-21T10:29:03;8.90;99.90
51855;DHT22;37895;53.240;6.572;2023-11-21T10:31:32;9.20;99.90
51855;DHT22;37895;53.240;6.572;2023-11-21T10:34:15;8.90;99.90
51855;DHT22;37895;53.240;6.572;2023-11-21T10:36:41;9.20;99.90
51855;DHT22;37895;53.240;6.572;2023-11-21T10:39:07;9.10;99.90
51855;DHT22;37895;53.240;6.572;2023-11-21T10:41:33;8.60;99.90
51855;DHT22;37895;53.240;6.572;2023-11-21T10:44:01;9.30;99.90
51855;DHT22;37895;53.240;6.572;2023-11-21T10:46:30;9.20;99.90
51855;DHT22;37895;53.240;6.572;2023-11-21T10:48:56;9.20;99.90
51855;DHT22;37895;53.240;6.572;2023-11-21T10:51:22;9.00;99.90
51855;DHT22;37895;53.240;6.572;2023-11-21T10:53:51;9.10;99.90
51855;DHT22;37895;53.240;6.572;2023-11-21T10:56:18;9.40;99.90
51855;DHT22;37895;53.240;6.572;2023-11-21T10:58:45;9.20;99.90
51855;DHT22;37895;53.240;6.572;2023-11-21T11:01:11;9.10;99.90
51855;DHT22;37895;53.240;6.572;2023-11-21T11:03:41;9.20;99.90
51855;DHT22;37895;53.240;6.572;2023-11-21T11:06:07;9.00;99.90
51855;DHT22;37895;53.240;6.572;2023-11-21T11:08:37;9.10;99.90
51855;DHT22;37895;53.240;6.572;2023-11-21T11:11:07;9.20;99.90
51855;DHT22;37895;53.240;6.572;2023-11-21T11:13:33;9.10;99.90
51855;DHT22;37895;53.240;6.572;2023-11-21T11:16:00;9.00;99.90
51855;DHT22;37895;53.240;6.572;2023-11-21T11:18:27;9.00;99.90
51855;DHT22;37895;53.240;6.572;2023-11-21T11:26:41;9.30;99.90
51855;DHT22;37895;53.240;6.572;2023-11-21T11:35:04;9.00;99.90
51855;DHT22;37895;53.240;6.572;2023-11-21T11:37:28;9.10;99.90
51855;DHT22;37895;53.240;6.572;2023-11-21T11:39:54;9.00;99.90
51855;DHT22;37895;53.240;6.572;2023-11-21T11:42:21;8.90;99.90
51855;DHT22;37895;53.240;6.572;2023-11-21T11:44:50;8.90;99.90
51855;DHT22;37895;53.240;6.572;2023-11-21T11:50:19;9.10;99.90
51855;DHT22;37895;53.240;6.572;2023-11-21T11:52:49;9.00;99.90
51855;DHT22;37895;53.240;6.572;2023-11-21T11:55:24;9.20;99.90
51855;DHT22;37895;53.240;6.572;2023-11-21T11:57:53;9.10;99.90
51855;DHT22;37895;53.240;6.572;2023-11-21T12:03:02;9.20;99.90
51855;DHT22;37895;53.240;6.572;2023-11-21T12:05:30;9.30;99.90
51855;DHT22;37895;53.240;6.572;2023-11-21T12:08:00;9.20;99.90
51855;DHT22;37895;53.240;6.572;2023-11-21T12:10:27;9.30;99.90
51855;DHT22;37895;53.240;6.572;2023-11-21T12:15:28;9.20;99.90
51855;DHT22;37895;53.240;6.572;2023-11-21T12:17:56;9.30;99.90
51855;DHT22;37895;53.240;6.572;2023-11-21T12:20:23;9.20;99.90
51855;DHT22;37895;53.240;6.572;2023-11-21T12:22:50;9.30;99.90
51855;DHT22;37895;53.240;6.572;2023-11-21T12:25:17;9.20;99.90
51855;DHT22;37895;53.240;6.572;2023-11-21T12:27:53;9.30;99.90
51855;DHT22;37895;53.240;6.572;2023-11-21T12:30:24;9.40;99.90
51855;DHT22;37895;53.240;6.572;2023-11-21T12:32:51;9.40;99.90
51855;DHT22;37895;53.240;6.572;2023-11-21T12:35:18;9.40;99.90
51855;DHT22;37895;53.240;6.572;2023-11-21T12:37:47;9.30;99.90
51855;DHT22;37895;53.240;6.572;2023-11-21T12:40:16;9.70;99.90
51855;DHT22;37895;53.240;6.572;2023-11-21T12:42:46;9.40;99.90
51855;DHT22;37895;53.240;6.572;2023-11-21T12:48:09;9.80;99.90
51855;DHT22;37895;53.240;6.572;2023-11-21T12:50:37;9.50;99.90
51855;DHT22;37895;53.240;6.572;2023-11-21T12:53:08;9.40;99.90
51855;DHT22;37895;53.240;6.572;2023-11-21T12:55:35;9.50;99.90
51855;DHT22;37895;53.240;6.572;2023-11-21T12:58:05;9.80;99.90
51855;DHT22;37895;53.240;6.572;2023-11-21T13:00:35;9.60;99.90
51855;DHT22;37895;53.240;6.572;2023-11-21T13:03:04;9.50;99.90
51855;DHT22;37895;53.240;6.572;2023-11-21T13:05:30;9.50;99.90
51855;DHT22;37895;53.240;6.572;2023-11-21T13:08:01;9.70;99.90
51855;DHT22;37895;53.240;6.572;2023-11-21T13:10:34;9.40;99.90
51855;DHT22;37895;53.240;6.572;2023-11-21T13:13:02;9.50;99.90
51855;DHT22;37895;53.240;6.572;2023-11-21T13:15:31;9.40;99.90
51855;DHT22;37895;53.240;6.572;2023-11-21T13:17:58;9.00;99.90
51855;DHT22;37895;53.240;6.572;2023-11-21T13:20:27;9.30;99.90
51855;DHT22;37895;53.240;6.572;2023-11-21T13:22:54;9.10;99.90
51855;DHT22;37895;53.240;6.572;2023-11-21T13:25:27;9.00;99.90
51855;DHT22;37895;53.240;6.572;2023-11-21T13:27:57;8.90;99.90
51855;DHT22;37895;53.240;6.572;2023-11-21T13:30:24;9.10;99.90
51855;DHT22;37895;53.240;6.572;2023-11-21T13:32:56;9.00;99.90
51855;DHT22;37895;53.240;6.572;2023-11-21T13:35:23;9.10;99.90
51855;DHT22;37895;53.240;6.572;2023-11-21T13:38:08;8.90;99.90
51855;DHT22;37895;53.240;6.572;2023-11-21T13:40:35;8.80;99.90
51855;DHT22;37895;53.240;6.572;2023-11-21T13:43:12;8.90;99.90
51855;DHT22;37895;53.240;6.572;2023-11-21T13:45:39;8.70;99.90
51855;DHT22;37895;53.240;6.572;2023-11-21T13:48:08;8.70;99.90
51855;DHT22;37895;53.240;6.572;2023-11-21T13:50:39;9.00;99.90
51855;DHT22;37895;53.240;6.572;2023-11-21T13:53:11;8.70;99.90
51855;DHT22;37895;53.240;6.572;2023-11-21T13:55:48;8.70;99.90
51855;DHT22;37895;53.240;6.572;2023-11-21T13:58:15;9.00;99.90
51855;DHT22;37895;53.240;6.572;2023-11-21T14:00:47;8.70;99.90
51855;DHT22;37895;53.240;6.572;2023-11-21T14:03:21;8.80;99.90
51855;DHT22;37895;53.240;6.572;2023-11-21T14:05:48;9.30;99.90
51855;DHT22;37895;53.240;6.572;2023-11-21T14:08:20;8.90;99.90
51855;DHT22;37895;53.240;6.572;2023-11-21T14:10:50;9.10;99.90
51855;DHT22;37895;53.240;6.572;2023-11-21T14:13:19;8.80;99.90
51855;DHT22;37895;53.240;6.572;2023-11-21T14:15:49;8.70;99.90
51855;DHT22;37895;53.240;6.572;2023-11-21T14:18:17;8.90;99.90
51855;DHT22;37895;53.240;6.572;2023-11-21T14:20:46;8.80;99.90
51855;DHT22;37895;53.240;6.572;2023-11-21T14:23:12;8.50;99.90
51855;DHT22;37895;53.240;6.572;2023-11-21T14:25:38;8.80;99.90
51855;DHT22;37895;53.240;6.572;2023-11-21T14:28:05;8.50;99.90
51855;DHT22;37895;53.240;6.572;2023-11-21T14:30:32;8.60;99.90
51855;DHT22;37895;53.240;6.572;2023-11-21T14:33:00;9.00;99.90
51855;DHT22;37895;53.240;6.572;2023-11-21T14:35:27;8.50;99.90
51855;DHT22;37895;53.240;6.572;2023-11-21T14:37:53;8.50;99.90
51855;DHT22;37895;53.240;6.572;2023-11-21T14:40:20;8.30;99.90
51855;DHT22;37895;53.240;6.572;2023-11-21T14:42:50;8.30;99.90
51855;DHT22;37895;53.240;6.572;2023-11-21T14:45:19;8.30;99.90
51855;DHT22;37895;53.240;6.572;2023-11-21T14:47:46;8.30;99.90
51855;DHT22;37895;53.240;6.572;2023-11-21T14:50:21;8.30;99.90
51855;DHT22;37895;53.240;6.572;2023-11-21T14:53:13;8.30;99.90
51855;DHT22;37895;53.240;6.572;2023-11-21T14:55:39;8.30;99.90
51855;DHT22;37895;53.240;6.572;2023-11-21T14:58:18;8.20;99.90
51855;DHT22;37895;53.240;6.572;2023-11-21T15:00:56;8.40;99.90
51855;DHT22;37895;53.240;6.572;2023-11-21T15:03:27;8.30;99.90
51855;DHT22;37895;53.240;6.572;2023-11-21T15:05:56;8.20;99.90
51855;DHT22;37895;53.240;6.572;2023-11-21T15:08:22;8.20;99.90
51855;DHT22;37895;53.240;6.572;2023-11-21T15:10:55;8.10;99.90
51855;DHT22;37895;53.240;6.572;2023-11-21T15:13:21;8.20;99.90
51855;DHT22;37895;53.240;6.572;2023-11-21T15:15:51;8.10;99.90
51855;DHT22;37895;53.240;6.572;2023-11-21T15:18:20;8.20;99.90
51855;DHT22;37895;53.240;6.572;2023-11-21T15:20:46;8.10;99.90
51855;DHT22;37895;53.240;6.572;2023-11-21T15:23:11;8.40;99.90
51855;DHT22;37895;53.240;6.572;2023-11-21T15:25:42;8.40;99.90
51855;DHT22;37895;53.240;6.572;2023-11-21T15:28:08;8.20;99.90
51855;DHT22;37895;53.240;6.572;2023-11-21T15:30:33;8.10;99.90
51855;DHT22;37895;53.240;6.572;2023-11-21T15:33:00;8.30;99.90
51855;DHT22;37895;53.240;6.572;2023-11-21T15:35:26;8.20;99.90
51855;DHT22;37895;53.240;6.572;2023-11-21T15:37:54;8.20;99.90
51855;DHT22;37895;53.240;6.572;2023-11-21T15:40:23;8.00;99.90
51855;DHT22;37895;53.240;6.572;2023-11-21T15:42:48;7.90;99.90
51855;DHT22;37895;53.240;6.572;2023-11-21T15:45:15;8.10;99.90
51855;DHT22;37895;53.240;6.572;2023-11-21T15:47:44;7.90;99.90
51855;DHT22;37895;53.240;6.572;2023-11-21T15:50:09;7.70;99.90
51855;DHT22;37895;53.240;6.572;2023-11-21T15:52:36;7.70;99.90
51855;DHT22;37895;53.240;6.572;2023-11-21T15:55:02;7.60;99.90
51855;DHT22;37895;53.240;6.572;2023-11-21T15:57:28;7.50;99.90
51855;DHT22;37895;53.240;6.572;2023-11-21T15:59:54;7.40;99.90
51855;DHT22;37895;53.240;6.572;2023-11-21T16:02:19;7.40;99.90
51855;DHT22;37895;53.240;6.572;2023-11-21T16:04:45;7.40;99.90